Parachute, CO (81635)

9:45 PM MST on February 13, 2016 (GMT -0700)
Taughenbaugh Mesa | | Change Station
CLOSE
Current Station
Personal Weather Station
Location: Rifle, CO
Elevation: 5650 ft
Nearby Weather Stations

Elev 5650 ft 39.50 °N, 107.85 °W | Updated 5 seconds ago

Clear
Clear
30.1 °F
Feels Like 30 °F
N
0.0
Wind Variable Wind from East
Gusts 0.0 mph

Today
High -- | Low -- °F
--% Chance of Precip.
Yesterday
High -- | Low -- °F
Precip. -- in
Pressure 30.31 in
Visibility 10.0 miles
Clouds Clear
Windchill 30 °F
Dew Point 24 °F
Humidity 76%
Rainfall in
Snow Depth Not available.
7:07 AM 5:45 PM
Waxing Crescent, 37% visible
METAR KRIL 140353Z AUTO 11004KT 10SM CLR M01/M05 A3022 RMK AO2 SLP262 T10061050
Pressure 30.31 in
Visibility 10.0 miles
Clouds Clear
Windchill 30 °F
Dew Point 24 °F
Humidity 76%
Rainfall in
Snow Depth Not available.
7:07 AM 5:45 PM
Waxing Crescent, 37% visible
METAR KRIL 140353Z AUTO 11004KT 10SM CLR M01/M05 A3022 RMK AO2 SLP262 T10061050

10-Day Weather Forecast

Almanac

Astronomy

Feb. 13, 2016 Rise Set
Actual Time
Civil Twilight
Nautical Twilight
Astronomical Twilight
Moon
Length of Visible Light
Length of Day
Tomorrow will be .
, % of the Moon is Illuminated

Today's Extremes

State Highs State Lows

Community

WunderPhotos

Upload Photos

1,892,746 photos uploaded!

WunderBlog® & News

Nearby

Air Quality

  Air Quality AQ Index Pollutant
Not available.

Snow Depth

Station Depth Elevation

Earthquake Activity

City Distance Mag. Time & Date
Minimum magnitude displayed is 2.5.

Coastal Water Temperatures

Place Temperature

Stations

Nearby Weather Stations

Station Location Temp. Windchill Dew Point Humidity Wind Precip. Elev Updated Type
                   

Watches & Warnings

There are currently no watches in effect.